Alexander, Iowa
Current Conditions -  °F | °C
As of 12:15 AM on Wednesday 28 Jan 2015 (Local Time) from KCAV Reporting Station
Haze Haze  
Wind Chill: 18°   Ceiling: 500
Heat Index: 30°   Visibility: 4mi
Dew Point: 30°   Wind: 18mph
Humidity: 100%   Direction: 140°SE
Pressure: 30.1"   Gusts: NA
Location:  42.81°N, 93.48°W
Report Text: KCAV 280615Z AUTO 14016KT 4SM BR OVC005 M01/M01 A3010 RMK AO2
Loading
Personal Weather Stations






























Interactive Weather Map New forecast layout! Learn more

10-Day Weather Forecast

Advertisements
Track Severe Weather on mobile